Saint Marys, Kansas
Current Conditions -  °F | °C
As of 4:53 PM on Friday 19 Dec 2014 (Local Time) from KTOP Reporting Station
Overcast Overcast  
Wind Chill: 33°   Ceiling: 1500
Heat Index: 33°   Visibility: 10mi
Dew Point: 27°   Wind: 3mph
Humidity: 78%   Direction: 270°W
Pressure: 30.21"   Gusts: NA
Location:  39.19°N, 96.07°W
Report Text: KTOP 192253Z AUTO 27003KT 10SM OVC015 01/M03 A3021 RMK AO2 SLP239 T00061028
Loading
Personal Weather Stations






























Interactive Weather Map New forecast layout! Learn more

10-Day Weather Forecast

Advertisements
Track Severe Weather on mobile